createdAt,value
2023-04-16T00:02:00.891Z,102247.97
2023-04-16T00:04:27.385Z,102250.69
2023-04-16T00:06:54.783Z,102254.00
2023-04-16T00:09:21.318Z,102247.72
2023-04-16T00:11:47.731Z,102256.69
2023-04-16T00:14:14.116Z,102247.16
2023-04-16T00:16:40.600Z,102253.16
2023-04-16T00:19:07.257Z,102260.22
2023-04-16T00:21:33.768Z,102260.22
2023-04-16T00:24:00.284Z,102255.84
2023-04-16T00:26:26.706Z,102250.44
2023-04-16T00:28:53.050Z,102257.50
2023-04-16T00:31:26.918Z,102243.84
2023-04-16T00:33:53.387Z,102249.25
2023-04-16T00:36:19.758Z,102260.91
2023-04-16T00:38:46.163Z,102250.91
2023-04-16T00:41:12.553Z,102247.16
2023-04-16T00:43:38.980Z,102247.97
2023-04-16T00:46:07.116Z,102256.94
2023-04-16T00:48:34.945Z,102254.22
2023-04-16T00:51:01.832Z,102252.09
2023-04-16T00:53:28.887Z,102260.44
2023-04-16T00:55:56.143Z,102258.56
2023-04-16T00:58:23.579Z,102259.63
2023-04-16T01:00:51.660Z,102256.94
2023-04-16T01:03:18.137Z,102250.91
2023-04-16T01:05:45.992Z,102250.91
2023-04-16T01:08:20.450Z,102255.50
2023-04-16T01:10:46.947Z,102253.03
2023-04-16T01:13:13.569Z,102249.25
2023-04-16T01:15:40.039Z,102257.38
2023-04-16T01:18:21.284Z,102255.72
2023-04-16T01:20:48.841Z,102260.09
2023-04-16T01:23:15.964Z,102249.47
2023-04-16T01:25:42.324Z,102251.38
2023-04-16T01:28:08.694Z,102248.66
2023-04-16T01:30:35.110Z,102259.25
2023-04-16T01:33:01.560Z,102253.84
2023-04-16T01:35:28.238Z,102257.81
2023-04-16T01:37:54.883Z,102258.44
2023-04-16T01:40:21.364Z,102263.00
2023-04-16T01:42:47.894Z,102262.19
2023-04-16T01:45:14.368Z,102260.53
2023-04-16T01:47:40.843Z,102264.28
2023-04-16T01:50:07.801Z,102261.59
2023-04-16T01:52:34.287Z,102261.34
2023-04-16T01:55:00.758Z,102264.50
2023-04-16T01:57:27.122Z,102263.06
2023-04-16T01:59:53.504Z,102263.06
2023-04-16T02:02:20.099Z,102269.91
2023-04-16T02:04:46.576Z,102260.38
2023-04-16T02:07:12.956Z,102265.53
2023-04-16T02:09:40.928Z,102268.03
2023-04-16T02:12:07.883Z,102264.28
2023-04-16T02:14:34.283Z,102267.00
2023-04-16T02:17:00.835Z,102256.38
2023-04-16T02:19:27.326Z,102266.16
2023-04-16T02:21:54.822Z,102254.72
2023-04-16T02:24:21.631Z,102264.28
2023-04-16T02:26:48.296Z,102266.75
2023-04-16T02:29:16.392Z,102262.41
2023-04-16T02:31:43.063Z,102258.44
2023-04-16T02:34:09.463Z,102258.44
2023-04-16T02:36:35.997Z,102262.78
2023-04-16T02:39:02.536Z,102256.78
2023-04-16T02:41:28.969Z,102257.38
2023-04-16T02:43:55.354Z,102254.66
2023-04-16T02:46:22.025Z,102260.09
2023-04-16T02:48:48.483Z,102265.50
2023-04-16T02:51:14.894Z,102265.50
2023-04-16T02:53:45.468Z,102256.34
2023-04-16T02:56:12.868Z,102259.03
2023-04-16T02:58:39.268Z,102265.88
2023-04-16T03:01:05.761Z,102262.09
2023-04-16T03:03:32.182Z,102270.22
2023-04-16T03:05:58.589Z,102271.03
2023-04-16T03:08:25.162Z,102264.22
2023-04-16T03:10:51.615Z,102268.81
2023-04-16T03:13:18.061Z,102268.81
2023-04-16T03:15:49.606Z,102274.22
2023-04-16T03:18:16.410Z,102276.94
2023-04-16T03:20:42.822Z,102285.03
2023-04-16T03:23:09.297Z,102284.19
2023-04-16T03:25:36.573Z,102272.56
2023-04-16T03:28:03.793Z,102278.59
2023-04-16T03:30:30.315Z,102282.91
2023-04-16T03:32:56.724Z,102287.75
2023-04-16T03:35:23.128Z,102286.09
2023-04-16T03:37:50.277Z,102290.47
2023-04-16T03:40:16.787Z,102285.03
2023-04-16T03:42:43.175Z,102287.75
2023-04-16T03:45:09.848Z,102297.97
2023-04-16T03:47:36.231Z,102297.13
2023-04-16T03:50:02.766Z,102297.38
2023-04-16T03:52:29.238Z,102293.00
2023-04-16T03:54:55.787Z,102293.00
2023-04-16T03:57:22.147Z,102293.81
2023-04-16T03:59:48.508Z,102301.72
2023-04-16T04:02:14.965Z,102293.81
2023-04-16T04:04:41.467Z,102296.31
2023-04-16T04:07:07.998Z,102291.94
2023-04-16T04:09:34.385Z,102297.56
2023-04-16T04:12:00.928Z,102298.41
2023-04-16T04:14:27.362Z,102302.78
2023-04-16T04:16:54.260Z,102296.75
2023-04-16T04:19:20.780Z,102296.75
2023-04-16T04:21:47.162Z,102296.75
2023-04-16T04:24:13.582Z,102299.47
2023-04-16T04:26:39.972Z,102298.41
2023-04-16T04:29:06.564Z,102304.44
2023-04-16T04:31:32.994Z,102303.81
2023-04-16T04:33:59.383Z,102312.56
2023-04-16T04:36:27.143Z,102308.19
2023-04-16T04:38:53.516Z,102319.00
2023-04-16T04:41:20.052Z,102315.25
2023-04-16T04:43:46.392Z,102321.72
2023-04-16T04:46:12.857Z,102318.16
2023-04-16T04:48:39.217Z,102325.47
2023-04-16T04:51:05.854Z,102329.59
2023-04-16T04:53:32.227Z,102321.72
2023-04-16T04:56:05.431Z,102329.00
2023-04-16T04:58:38.370Z,102330.88
2023-04-16T05:01:05.113Z,102333.59
2023-04-16T05:03:31.693Z,102323.38
2023-04-16T05:05:58.124Z,102332.53
2023-04-16T05:08:24.483Z,102317.56
2023-04-16T05:10:51.089Z,102336.28
2023-04-16T05:13:17.469Z,102330.03
2023-04-16T05:15:45.029Z,102329.00
2023-04-16T05:18:11.448Z,102327.34
2023-04-16T05:20:37.962Z,102330.88
2023-04-16T05:23:04.401Z,102330.88
2023-04-16T05:25:30.962Z,102331.69
2023-04-16T05:27:57.386Z,102332.53
2023-04-16T05:30:23.786Z,102326.53
2023-04-16T05:32:50.341Z,102333.78
2023-04-16T05:35:17.613Z,102339.00
2023-04-16T05:37:44.329Z,102341.72
2023-04-16T05:40:13.760Z,102346.69
2023-04-16T05:42:40.187Z,102336.06
2023-04-16T05:45:07.066Z,102341.72
2023-04-16T05:47:33.466Z,102343.81
2023-04-16T05:49:59.848Z,102347.94
2023-04-16T05:52:26.262Z,102341.47
2023-04-16T05:54:52.643Z,102353.94
2023-04-16T05:57:18.996Z,102350.44
2023-04-16T05:59:45.554Z,102355.59
2023-04-16T06:02:12.403Z,102350.00
2023-04-16T06:04:38.847Z,102355.41
2023-04-16T06:07:05.548Z,102352.69
2023-04-16T06:09:31.898Z,102358.69
2023-04-16T06:11:58.300Z,102365.19
2023-04-16T06:14:24.740Z,102364.09
2023-04-16T06:16:51.203Z,102365.75
2023-04-16T06:19:17.577Z,102366.38
2023-04-16T06:21:44.075Z,102363.66
2023-04-16T06:24:10.565Z,102371.34
2023-04-16T06:26:36.995Z,102373.22
2023-04-16T06:29:03.353Z,102378.41
2023-04-16T06:31:30.366Z,102380.75
2023-04-16T06:33:57.010Z,102388.63
2023-04-16T06:36:23.542Z,102384.06
2023-04-16T06:38:49.912Z,102377.78
2023-04-16T06:41:16.322Z,102388.41
2023-04-16T06:43:42.712Z,102391.94
2023-04-16T06:46:09.122Z,102387.56
2023-04-16T06:48:35.687Z,102395.47
2023-04-16T06:51:02.254Z,102394.88
2023-04-16T06:53:28.657Z,102395.69
2023-04-16T06:55:55.562Z,102397.34
2023-04-16T06:58:22.499Z,102406.50
2023-04-16T07:00:48.908Z,102397.34
2023-04-16T07:03:15.538Z,102401.72
2023-04-16T07:05:42.034Z,102402.75
2023-04-16T07:08:08.490Z,102408.19
2023-04-16T07:10:34.983Z,102414.00
2023-04-16T07:13:01.668Z,102414.59
2023-04-16T07:15:29.002Z,102423.53
2023-04-16T07:17:55.629Z,102423.53
2023-04-16T07:20:22.118Z,102417.91
2023-04-16T07:22:48.574Z,102426.84
2023-04-16T07:25:14.930Z,102432.25
2023-04-16T07:27:41.310Z,102433.09
2023-04-16T07:30:08.150Z,102417.06
2023-04-16T07:32:35.041Z,102429.34
2023-04-16T07:35:01.632Z,102434.75
2023-04-16T07:37:27.989Z,102434.75
2023-04-16T07:39:57.497Z,102437.22
2023-04-16T07:42:23.962Z,102436.19
2023-04-16T07:44:50.415Z,102447.63
2023-04-16T07:47:16.814Z,102443.88
2023-04-16T07:49:43.303Z,102449.28
2023-04-16T07:52:09.681Z,102454.50
2023-04-16T07:54:36.243Z,102453.44
2023-04-16T07:57:02.685Z,102460.50
2023-04-16T07:59:29.543Z,102454.25
2023-04-16T08:01:56.437Z,102454.25
2023-04-16T08:04:25.473Z,102461.94
2023-04-16T08:06:53.045Z,102455.47
2023-04-16T08:09:21.597Z,102458.78
2023-04-16T08:11:49.881Z,102460.69
2023-04-16T08:14:17.057Z,102467.97
2023-04-16T08:16:43.405Z,102470.06
2023-04-16T08:19:10.168Z,102477.97
2023-04-16T08:21:36.865Z,102482.56
2023-04-16T08:24:03.316Z,102481.50
2023-04-16T08:26:29.690Z,102472.94
2023-04-16T08:28:56.035Z,102479.41
2023-04-16T08:31:22.529Z,102481.28
2023-04-16T08:33:48.938Z,102488.13
2023-04-16T08:36:15.329Z,102484.16
2023-04-16T08:38:43.499Z,102489.16
2023-04-16T08:41:12.430Z,102484.53
2023-04-16T08:43:44.410Z,102493.06
2023-04-16T08:46:12.516Z,102496.59
2023-04-16T08:48:42.041Z,102499.09
2023-04-16T08:51:10.660Z,102496.16
2023-04-16T08:53:48.278Z,102495.72
2023-04-16T08:56:15.750Z,102497.97
2023-04-16T08:58:42.309Z,102500.25
2023-04-16T09:01:13.557Z,102493.53
2023-04-16T09:03:50.004Z,102500.63
2023-04-16T09:06:17.199Z,102504.78
2023-04-16T09:08:48.417Z,102499.13
2023-04-16T09:11:17.956Z,102496.41
2023-04-16T09:13:45.984Z,102504.34
2023-04-16T09:16:13.459Z,102493.88
2023-04-16T09:18:40.353Z,102501.78
2023-04-16T09:21:09.956Z,102509.69
2023-04-16T09:23:37.483Z,102501.34
2023-04-16T09:26:04.847Z,102505.47
2023-04-16T09:28:48.694Z,102507.97
2023-04-16T09:31:17.123Z,102509.63
2023-04-16T09:33:44.563Z,102516.72
2023-04-16T09:36:11.165Z,102519.88
2023-04-16T09:38:53.683Z,102513.38
2023-04-16T09:41:27.516Z,102524.59
2023-04-16T09:43:57.991Z,102530.88
2023-04-16T09:46:31.713Z,102518.13
2023-04-16T09:48:58.311Z,102528.75
2023-04-16T09:51:26.928Z,102532.06
2023-04-16T09:53:54.866Z,102539.16
2023-04-16T09:56:26.123Z,102540.81
2023-04-16T09:58:58.169Z,102540.56
2023-04-16T10:01:24.977Z,102534.09
2023-04-16T10:03:54.634Z,102540.38
2023-04-16T10:06:23.104Z,102548.72
2023-04-16T10:08:52.898Z,102544.94
2023-04-16T10:11:20.532Z,102545.78
2023-04-16T10:13:47.140Z,102552.03
2023-04-16T10:16:13.639Z,102548.25
2023-04-16T10:18:42.538Z,102540.13
2023-04-16T10:21:11.931Z,102540.97
2023-04-16T10:23:39.811Z,102550.75
2023-04-16T10:26:06.737Z,102546.16
2023-04-16T10:28:35.398Z,102550.31
2023-04-16T10:31:09.038Z,102544.06
2023-04-16T10:33:39.292Z,102545.25
2023-04-16T10:36:13.617Z,102547.78
2023-04-16T10:38:56.584Z,102550.69
2023-04-16T10:41:22.965Z,102547.16
2023-04-16T10:43:51.528Z,102554.00
2023-04-16T10:46:23.641Z,102555.66
2023-04-16T10:48:53.322Z,102552.72
2023-04-16T10:51:26.204Z,102547.28
2023-04-16T10:53:54.501Z,102555.22
2023-04-16T10:56:26.324Z,102555.22
2023-04-16T10:58:54.091Z,102555.81
2023-04-16T11:01:31.364Z,102554.78
2023-04-16T11:04:02.220Z,102558.09
2023-04-16T11:06:29.565Z,102564.31
2023-04-16T11:08:56.164Z,102553.47
2023-04-16T11:11:23.278Z,102555.13
2023-04-16T11:13:50.038Z,102555.97
2023-04-16T11:16:17.104Z,102551.16
2023-04-16T11:18:51.276Z,102553.63
2023-04-16T11:21:18.414Z,102557.56
2023-04-16T11:23:50.162Z,102557.56
2023-04-16T11:26:27.842Z,102561.31
2023-04-16T11:28:56.696Z,102564.03
2023-04-16T11:31:24.022Z,102562.63
2023-04-16T11:33:50.868Z,102564.47
2023-04-16T11:36:17.461Z,102569.28
2023-04-16T11:38:43.936Z,102565.97
2023-04-16T11:41:11.104Z,102566.22
2023-04-16T11:43:37.680Z,102566.81
2023-04-16T11:46:19.980Z,102569.28
2023-04-16T11:48:55.483Z,102563.88
2023-04-16T11:51:23.540Z,102561.75
2023-04-16T11:53:54.100Z,102565.69
2023-04-16T11:56:31.456Z,102564.03
2023-04-16T11:59:15.724Z,102565.47
2023-04-16T12:01:45.871Z,102564.63
2023-04-16T12:04:14.249Z,102568.78
2023-04-16T12:06:40.885Z,102571.28
2023-04-16T12:09:27.278Z,102568.94
2023-04-16T12:11:54.017Z,102576.63
2023-04-16T12:14:20.445Z,102580.16
2023-04-16T12:16:46.989Z,102574.97
2023-04-16T12:19:14.023Z,102580.81
2023-04-16T12:21:45.755Z,102580.34
2023-04-16T12:24:14.806Z,102584.72
2023-04-16T12:26:46.543Z,102583.06
2023-04-16T12:29:23.250Z,102588.28
2023-04-16T12:31:51.149Z,102582.84
2023-04-16T12:34:18.857Z,102589.94
2023-04-16T12:36:46.323Z,102583.47
2023-04-16T12:39:14.485Z,102590.75
2023-04-16T12:41:42.842Z,102591.59
2023-04-16T12:44:17.825Z,102589.09
2023-04-16T12:46:44.795Z,102589.94
2023-04-16T12:49:11.675Z,102593.25
2023-04-16T12:51:39.137Z,102585.94
2023-04-16T12:54:09.886Z,102587.97
2023-04-16T12:56:36.515Z,102593.31
2023-04-16T12:59:03.428Z,102589.69
2023-04-16T13:01:29.910Z,102590.91
2023-04-16T13:03:56.620Z,102590.44
2023-04-16T13:06:23.345Z,102596.69
2023-04-16T13:08:49.712Z,102592.72
2023-04-16T13:11:16.489Z,102589.16
2023-04-16T13:13:42.895Z,102584.19
2023-04-16T13:16:09.432Z,102581.25
2023-04-16T13:18:40.108Z,102588.56
2023-04-16T13:21:06.665Z,102595.03
2023-04-16T13:23:33.067Z,102586.69
2023-04-16T13:25:59.466Z,102586.22
2023-04-16T13:28:25.947Z,102582.47
2023-04-16T13:30:53.044Z,102584.13
2023-04-16T13:33:20.699Z,102580.34
2023-04-16T13:35:49.081Z,102582.00
2023-04-16T13:38:15.872Z,102579.88
2023-04-16T13:40:44.663Z,102584.47
2023-04-16T13:43:13.803Z,102582.59
2023-04-16T13:46:02.008Z,102587.78
2023-04-16T13:48:29.301Z,102585.53
2023-04-16T13:50:56.174Z,102589.69
2023-04-16T13:53:24.623Z,102583.41
2023-04-16T13:56:15.258Z,102589.09
2023-04-16T13:58:41.853Z,102585.31
2023-04-16T14:01:09.814Z,102585.91
2023-04-16T14:03:38.450Z,102591.34
2023-04-16T14:06:05.549Z,102582.59
2023-04-16T14:08:32.028Z,102584.00
2023-04-16T14:10:58.794Z,102574.59
2023-04-16T14:13:25.470Z,102576.88
2023-04-16T14:15:54.922Z,102581.38
2023-04-16T14:18:21.348Z,102574.19
2023-04-16T14:20:48.198Z,102576.22
2023-04-16T14:23:14.593Z,102582.47
2023-04-16T14:25:40.960Z,102584.97
2023-04-16T14:28:08.903Z,102573.63
2023-04-16T14:30:35.362Z,102580.25
2023-04-16T14:33:02.668Z,102578.50
2023-04-16T14:35:29.143Z,102575.34
2023-04-16T14:37:56.050Z,102574.50
2023-04-16T14:40:22.492Z,102583.69
2023-04-16T14:42:48.872Z,102580.63
2023-04-16T14:45:16.013Z,102584.63
2023-04-16T14:47:47.982Z,102584.47
2023-04-16T14:50:15.611Z,102582.84
2023-04-16T14:52:42.356Z,102567.63
2023-04-16T14:55:08.882Z,102578.69
2023-04-16T14:57:35.315Z,102569.75
2023-04-16T15:00:02.140Z,102564.31
2023-04-16T15:02:28.962Z,102575.16
2023-04-16T15:04:55.606Z,102567.47
2023-04-16T15:07:22.203Z,102565.38
2023-04-16T15:09:48.557Z,102565.97
2023-04-16T15:12:15.511Z,102570.34
2023-04-16T15:14:43.366Z,102561.25
2023-04-16T15:17:10.047Z,102570.97
2023-04-16T15:19:36.714Z,102567.53
2023-04-16T15:22:03.151Z,102575.81
2023-04-16T15:24:29.595Z,102564.97
2023-04-16T15:26:56.169Z,102574.16
2023-04-16T15:29:22.548Z,102569.56
2023-04-16T15:31:48.936Z,102573.69
2023-04-16T15:34:15.410Z,102571.22
2023-04-16T15:36:42.049Z,102576.88
2023-04-16T15:39:09.740Z,102579.13
2023-04-16T15:41:47.004Z,102577.47
2023-04-16T15:44:23.828Z,102576.28
2023-04-16T15:46:50.325Z,102578.41
2023-04-16T15:49:16.788Z,102568.00
2023-04-16T15:51:43.253Z,102568.47
2023-04-16T15:54:09.766Z,102573.75
2023-04-16T15:56:36.207Z,102580.25
2023-04-16T15:59:03.785Z,102575.06
2023-04-16T16:01:31.082Z,102575.28
2023-04-16T16:03:57.782Z,102573.06
2023-04-16T16:06:24.614Z,102566.78
2023-04-16T16:08:51.144Z,102566.19
2023-04-16T16:11:17.612Z,102572.91
2023-04-16T16:13:44.093Z,102575.03
2023-04-16T16:16:10.708Z,102566.28
2023-04-16T16:18:37.377Z,102576.31
2023-04-16T16:21:03.948Z,102567.56
2023-04-16T16:23:30.413Z,102574.28
2023-04-16T16:25:56.904Z,102575.09
2023-04-16T16:28:25.030Z,102570.97
2023-04-16T16:30:53.768Z,102572.03
2023-04-16T16:33:20.737Z,102576.63
2023-04-16T16:35:47.278Z,102574.75
2023-04-16T16:38:13.743Z,102569.31
2023-04-16T16:40:40.212Z,102568.47
2023-04-16T16:43:06.618Z,102564.09
2023-04-16T16:45:33.004Z,102573.09
2023-04-16T16:47:59.401Z,102570.84
2023-04-16T16:50:26.112Z,102574.59
2023-04-16T16:52:52.501Z,102576.13
2023-04-16T16:55:20.191Z,102576.56
2023-04-16T16:57:46.592Z,102581.41
2023-04-16T17:00:14.245Z,102585.63
2023-04-16T17:02:41.230Z,102588.19
2023-04-16T17:05:08.257Z,102593.47
2023-04-16T17:07:34.652Z,102586.22
2023-04-16T17:10:03.814Z,102596.47
2023-04-16T17:12:31.828Z,102591.50
2023-04-16T17:14:58.300Z,102589.84
2023-04-16T17:17:25.133Z,102594.06
2023-04-16T17:19:51.595Z,102599.34
2023-04-16T17:22:18.260Z,102595.22
2023-04-16T17:24:44.622Z,102597.50
2023-04-16T17:27:11.160Z,102599.59
2023-04-16T17:29:37.521Z,102605.72
2023-04-16T17:32:04.289Z,102611.59
2023-04-16T17:34:30.781Z,102610.13
2023-04-16T17:36:57.176Z,102616.00
2023-04-16T17:39:23.594Z,102623.31
2023-04-16T17:41:54.205Z,102622.31
2023-04-16T17:44:20.906Z,102628.34
2023-04-16T17:46:47.293Z,102625.25
2023-04-16T17:49:13.660Z,102625.91
2023-04-16T17:51:41.017Z,102636.19
2023-04-16T17:54:07.430Z,102642.66
2023-04-16T17:56:33.839Z,102637.22
2023-04-16T17:59:00.678Z,102633.91
2023-04-16T18:01:27.522Z,102645.81
2023-04-16T18:03:54.337Z,102632.44
2023-04-16T18:06:20.985Z,102638.94
2023-04-16T18:08:47.330Z,102639.97
2023-04-16T18:11:13.714Z,102639.16
2023-04-16T18:13:40.480Z,102648.34
2023-04-16T18:16:13.398Z,102652.09
2023-04-16T18:18:39.810Z,102644.41
2023-04-16T18:21:06.186Z,102650.88
2023-04-16T18:23:32.641Z,102647.56
2023-04-16T18:25:59.012Z,102648.63
2023-04-16T18:28:26.795Z,102650.72
2023-04-16T18:30:53.425Z,102657.19
2023-04-16T18:33:44.464Z,102658.44
2023-04-16T18:36:06.630Z,102658.06
2023-04-16T18:38:33.112Z,102665.56
2023-04-16T18:40:59.605Z,102669.53
2023-04-16T18:43:26.135Z,102670.81
2023-04-16T18:45:52.582Z,102676.25
2023-04-16T18:48:19.001Z,102678.34
2023-04-16T18:50:45.573Z,102675.00
2023-04-16T18:53:12.045Z,102677.31
2023-04-16T18:55:38.400Z,102687.53
2023-04-16T18:58:04.851Z,102690.25
2023-04-16T19:00:31.620Z,102689.88
2023-04-16T19:02:58.025Z,102687.16
2023-04-16T19:05:24.461Z,102691.72
2023-04-16T19:07:50.903Z,102697.38
2023-04-16T19:10:17.464Z,102691.34
2023-04-16T19:12:43.878Z,102690.28
2023-04-16T19:15:10.907Z,102696.53
2023-04-16T19:17:37.288Z,102692.38
2023-04-16T19:20:08.390Z,102692.38
2023-04-16T19:22:34.765Z,102703.84
2023-04-16T19:25:01.922Z,102700.91
2023-04-16T19:27:31.694Z,102695.72
2023-04-16T19:29:58.117Z,102690.72
2023-04-16T19:32:24.599Z,102699.91
2023-04-16T19:34:51.001Z,102692.81
2023-04-16T19:37:17.451Z,102690.13
2023-04-16T19:39:43.850Z,102690.13
2023-04-16T19:42:10.315Z,102690.13
2023-04-16T19:44:36.757Z,102694.91
2023-04-16T19:47:03.221Z,102694.91
2023-04-16T19:49:29.649Z,102693.25
2023-04-16T19:51:56.005Z,102698.66
2023-04-16T19:54:22.351Z,102697.00
2023-04-16T19:56:51.663Z,102697.44
2023-04-16T19:59:18.084Z,102702.84
2023-04-16T20:01:44.679Z,102708.28
2023-04-16T20:04:11.520Z,102702.84
2023-04-16T20:06:37.978Z,102705.78
2023-04-16T20:09:04.919Z,102707.88
2023-04-16T20:11:31.317Z,102708.94
2023-04-16T20:14:00.291Z,102702.66
2023-04-16T20:16:26.853Z,102712.47
2023-04-16T20:18:54.369Z,102702.66
2023-04-16T20:21:25.124Z,102700.19
2023-04-16T20:23:51.491Z,102712.88
2023-04-16T20:26:19.254Z,102702.28
2023-04-16T20:28:45.897Z,102705.81
2023-04-16T20:31:12.912Z,102704.38
2023-04-16T20:33:39.402Z,102704.38
2023-04-16T20:36:06.727Z,102706.25
2023-04-16T20:38:34.296Z,102706.25
2023-04-16T20:41:10.571Z,102701.66
2023-04-16T20:43:42.002Z,102700.81
2023-04-16T20:46:08.999Z,102697.91
2023-04-16T20:48:35.529Z,102696.63
2023-04-16T20:51:03.727Z,102702.66
2023-04-16T20:53:33.777Z,102693.94
2023-04-16T20:56:00.548Z,102693.94
2023-04-16T20:58:29.780Z,102697.69
2023-04-16T21:00:57.539Z,102686.47
2023-04-16T21:03:24.663Z,102697.50
2023-04-16T21:05:55.809Z,102684.81
2023-04-16T21:08:23.555Z,102686.66
2023-04-16T21:10:50.887Z,102689.38
2023-04-16T21:13:17.271Z,102685.00
2023-04-16T21:15:44.753Z,102687.94
2023-04-16T21:18:11.513Z,102687.94
2023-04-16T21:20:38.852Z,102683.78
2023-04-16T21:23:06.039Z,102686.28
2023-04-16T21:25:33.500Z,102690.22
2023-04-16T21:27:59.933Z,102692.94
2023-04-16T21:30:26.450Z,102679.84
2023-04-16T21:32:52.903Z,102671.72
2023-04-16T21:35:19.436Z,102677.13
2023-04-16T21:37:45.822Z,102684.19
2023-04-16T21:40:12.371Z,102683.16
2023-04-16T21:42:42.393Z,102688.38
2023-04-16T21:45:10.141Z,102686.28
2023-04-16T21:47:37.176Z,102691.72
2023-04-16T21:50:04.004Z,102690.66
2023-04-16T21:52:30.543Z,102692.56
2023-04-16T21:54:56.901Z,102693.38
2023-04-16T21:57:23.451Z,102691.72
2023-04-16T21:59:49.860Z,102695.47
2023-04-16T22:02:16.432Z,102692.13
2023-04-16T22:04:43.603Z,102696.50
2023-04-16T22:07:10.057Z,102688.81
2023-04-16T22:09:36.543Z,102691.94
2023-04-16T22:12:03.111Z,102687.81
2023-04-16T22:14:30.174Z,102682.59
2023-04-16T22:16:56.639Z,102686.34
2023-04-16T22:19:23.083Z,102687.19
2023-04-16T22:21:49.489Z,102684.69
2023-04-16T22:24:15.863Z,102681.97
2023-04-16T22:26:42.428Z,102681.97
2023-04-16T22:29:08.847Z,102684.91
2023-04-16T22:31:35.447Z,102683.00
2023-04-16T22:34:03.444Z,102691.13
2023-04-16T22:36:30.913Z,102682.19
2023-04-16T22:38:57.305Z,102684.50
2023-04-16T22:41:23.837Z,102679.09
2023-04-16T22:43:52.485Z,102689.31
2023-04-16T22:46:22.357Z,102682.22
2023-04-16T22:48:48.815Z,102674.13
2023-04-16T22:51:15.280Z,102684.94
2023-04-16T22:53:41.804Z,102693.06
2023-04-16T22:56:08.253Z,102674.31
2023-04-16T22:58:34.651Z,102682.44
2023-04-16T23:01:01.692Z,102676.41
2023-04-16T23:03:28.256Z,102675.59
2023-04-16T23:05:54.803Z,102681.00
2023-04-16T23:08:21.174Z,102688.06
2023-04-16T23:10:47.542Z,102686.41
2023-04-16T23:13:13.911Z,102689.13
2023-04-16T23:15:40.479Z,102690.97
2023-04-16T23:18:06.953Z,102689.13
2023-04-16T23:20:33.383Z,102686.41
2023-04-16T23:22:59.735Z,102691.81
2023-04-16T23:25:26.221Z,102690.16
2023-04-16T23:27:52.570Z,102693.06
2023-04-16T23:30:19.028Z,102698.47
2023-04-16T23:32:45.502Z,102691.41
2023-04-16T23:35:11.917Z,102696.00
2023-04-16T23:37:38.265Z,102691.00
2023-04-16T23:40:05.262Z,102693.09
2023-04-16T23:42:31.642Z,102690.16
2023-04-16T23:44:58.116Z,102694.53
2023-04-16T23:47:24.509Z,102690.38
2023-04-16T23:49:50.996Z,102698.28
2023-04-16T23:52:17.442Z,102698.91
2023-04-16T23:54:43.850Z,102698.06
2023-04-16T23:57:10.345Z,102695.38
2023-04-16T23:59:36.682Z,102695.19
